createdAt,value
2022-11-21T00:00:00.476Z,15.57
2022-11-21T00:02:30.902Z,18.20
2022-11-21T00:05:01.250Z,19.77
2022-11-21T00:07:31.626Z,16.33
2022-11-21T00:10:01.941Z,14.25
2022-11-21T00:12:32.233Z,17.90
2022-11-21T00:15:03.006Z,18.65
2022-11-21T00:17:33.293Z,18.57
2022-11-21T00:20:03.600Z,21.50
2022-11-21T00:22:34.808Z,21.47
2022-11-21T00:25:05.253Z,21.13
2022-11-21T00:27:35.523Z,19.55
2022-11-21T00:30:06.724Z,26.90
2022-11-21T00:32:37.043Z,21.35
2022-11-21T00:35:08.399Z,23.52
2022-11-21T00:37:39.045Z,22.30
2022-11-21T00:40:09.944Z,24.13
2022-11-21T00:42:41.015Z,21.50
2022-11-21T00:45:11.755Z,17.67
2022-11-21T00:47:42.157Z,16.15
2022-11-21T00:50:13.210Z,15.38
2022-11-21T00:52:43.625Z,19.40
2022-11-21T00:55:13.938Z,17.77
2022-11-21T00:57:44.391Z,20.98
2022-11-21T01:00:15.347Z,17.90
2022-11-21T01:02:46.156Z,14.95
2022-11-21T01:05:16.611Z,22.73
2022-11-21T01:07:47.150Z,20.40
2022-11-21T01:10:17.756Z,21.38
2022-11-21T01:12:48.274Z,19.42
2022-11-21T01:15:18.895Z,17.45
2022-11-21T01:17:49.415Z,17.13
2022-11-21T01:20:19.762Z,23.80
2022-11-21T01:22:50.011Z,16.77
2022-11-21T01:25:20.440Z,20.75
2022-11-21T01:27:50.710Z,16.25
2022-11-21T01:30:21.105Z,20.38
2022-11-21T01:32:52.419Z,16.90
2022-11-21T01:37:52.508Z,20.33
2022-11-21T01:40:24.598Z,17.90
2022-11-21T01:43:05.678Z,17.52
2022-11-21T01:45:59.046Z,17.63
2022-11-21T01:49:13.808Z,18.58
2022-11-21T01:52:02.854Z,17.45
2022-11-21T01:55:02.610Z,18.58
2022-11-21T01:57:42.336Z,15.48
2022-11-21T02:00:23.807Z,19.73
2022-11-21T02:02:58.680Z,21.45
2022-11-21T02:05:33.864Z,17.35
2022-11-21T02:08:17.772Z,16.10
2022-11-21T02:10:59.463Z,15.02
2022-11-21T02:13:30.362Z,14.98
2022-11-21T02:16:01.120Z,13.48
2022-11-21T02:18:31.473Z,14.60
2022-11-21T02:21:28.282Z,11.98
2022-11-21T02:24:32.816Z,13.95
2022-11-21T02:27:04.305Z,13.45
2022-11-21T02:29:35.247Z,14.13
2022-11-21T02:32:09.345Z,15.68
2022-11-21T02:34:39.685Z,15.40
2022-11-21T02:37:12.233Z,20.43
2022-11-21T02:39:43.249Z,16.17
2022-11-21T02:42:25.249Z,16.13
2022-11-21T02:45:21.360Z,14.98
2022-11-21T02:48:00.672Z,18.02
2022-11-21T02:50:36.659Z,16.58
2022-11-21T02:53:10.522Z,15.70
2022-11-21T02:55:41.254Z,16.55
2022-11-21T02:58:11.826Z,15.82
2022-11-21T03:00:44.081Z,13.27
2022-11-21T03:03:14.742Z,17.63
2022-11-21T03:05:45.716Z,15.07
2022-11-21T03:08:17.016Z,98.65
2022-11-21T03:10:47.337Z,66.68
2022-11-21T03:13:17.950Z,16.57
2022-11-21T03:15:48.096Z,12.15
2022-11-21T03:18:18.630Z,19.43
2022-11-21T03:20:48.966Z,12.18
2022-11-21T03:23:19.489Z,15.70
2022-11-21T03:25:49.801Z,14.73
2022-11-21T03:28:20.101Z,13.88
2022-11-21T03:30:50.494Z,19.17
2022-11-21T03:33:20.784Z,20.27
2022-11-21T03:35:51.245Z,13.55
2022-11-21T03:38:22.111Z,14.80
2022-11-21T03:40:52.436Z,11.98
2022-11-21T03:43:22.639Z,14.52
2022-11-21T03:45:53.054Z,12.15
2022-11-21T03:48:23.415Z,13.80
2022-11-21T03:50:53.771Z,11.93
2022-11-21T03:53:24.139Z,13.98
2022-11-21T03:55:54.455Z,8.35
2022-11-21T03:58:24.737Z,11.98
2022-11-21T04:00:55.123Z,15.88
2022-11-21T04:03:25.498Z,173.90
2022-11-21T04:05:55.831Z,35.22
2022-11-21T04:08:26.377Z,18.88
2022-11-21T04:10:57.686Z,35.85
2022-11-21T04:15:58.150Z,24.20
2022-11-21T04:18:28.449Z,8.95
2022-11-21T04:21:03.123Z,17.45
2022-11-21T04:23:33.452Z,11.77
2022-11-21T04:26:04.112Z,12.68
2022-11-21T04:28:34.606Z,9.95
2022-11-21T04:31:10.442Z,10.80
2022-11-21T04:33:42.326Z,12.32
2022-11-21T04:38:42.459Z,10.30
2022-11-21T04:41:12.602Z,11.75
2022-11-21T04:43:43.311Z,12.32
2022-11-21T04:46:13.831Z,97.55
2022-11-21T04:48:44.161Z,11.13
2022-11-21T04:51:14.421Z,11.18
2022-11-21T04:53:44.770Z,8.65
2022-11-21T04:56:19.894Z,11.45
2022-11-21T04:58:50.212Z,11.98
2022-11-21T05:01:20.695Z,12.23
2022-11-21T05:03:51.050Z,11.07
2022-11-21T05:06:21.447Z,9.10
2022-11-21T05:08:54.111Z,12.32
2022-11-21T05:11:42.930Z,15.00
2022-11-21T05:14:14.309Z,12.65
2022-11-21T05:16:44.582Z,87.90
2022-11-21T05:19:14.945Z,11.45
2022-11-21T05:21:45.297Z,10.88
2022-11-21T05:24:15.589Z,14.23
2022-11-21T05:26:45.891Z,11.55
2022-11-21T05:29:16.355Z,11.43
2022-11-21T05:31:46.621Z,12.05
2022-11-21T05:34:17.138Z,14.18
2022-11-21T05:36:47.421Z,11.70
2022-11-21T05:39:18.207Z,10.63
2022-11-21T05:41:48.505Z,12.27
2022-11-21T05:44:18.868Z,9.02
2022-11-21T05:46:49.477Z,10.13
2022-11-21T05:49:19.785Z,9.30
2022-11-21T05:51:50.132Z,9.82
2022-11-21T05:54:20.423Z,10.00
2022-11-21T05:56:50.718Z,8.85
2022-11-21T05:59:21.096Z,13.20
2022-11-21T06:02:10.035Z,13.93
2022-11-21T06:04:40.329Z,36.83
2022-11-21T06:07:10.755Z,12.43
2022-11-21T06:09:41.086Z,11.63
2022-11-21T06:12:11.864Z,10.60
2022-11-21T06:14:42.149Z,11.10
2022-11-21T06:17:12.523Z,11.80
2022-11-21T06:19:42.899Z,9.27
2022-11-21T06:22:13.224Z,9.70
2022-11-21T06:24:43.333Z,9.73
2022-11-21T06:27:13.477Z,10.75
2022-11-21T06:29:43.561Z,11.55
2022-11-21T06:32:13.925Z,9.75
2022-11-21T06:34:44.248Z,16.23
2022-11-21T06:37:14.543Z,13.18
2022-11-21T06:39:44.938Z,7.97
2022-11-21T06:42:15.299Z,11.82
2022-11-21T06:44:45.585Z,10.38
2022-11-21T06:47:16.097Z,10.93
2022-11-21T06:49:46.295Z,33.03
2022-11-21T06:52:16.605Z,11.43
2022-11-21T06:54:46.930Z,10.57
2022-11-21T06:57:17.228Z,9.70
2022-11-21T06:59:47.416Z,10.90
2022-11-21T07:02:18.766Z,8.90
2022-11-21T07:04:49.331Z,12.00
2022-11-21T07:07:19.793Z,8.77
2022-11-21T07:09:50.660Z,9.47
2022-11-21T07:12:44.122Z,10.75
2022-11-21T07:15:14.789Z,9.43
2022-11-21T07:17:45.167Z,10.33
2022-11-21T07:20:15.829Z,10.55
2022-11-21T07:22:46.121Z,15.80
2022-11-21T07:25:16.449Z,8.48
2022-11-21T07:27:46.555Z,16.05
2022-11-21T07:30:17.136Z,11.68
2022-11-21T07:32:47.359Z,12.15
2022-11-21T07:35:17.661Z,8.02
2022-11-21T07:37:47.991Z,10.10
2022-11-21T07:40:18.333Z,10.80
2022-11-21T07:42:50.076Z,508.40
2022-11-21T07:45:20.934Z,19.80
2022-11-21T07:47:59.291Z,12.18
2022-11-21T07:50:30.547Z,10.55
2022-11-21T07:55:39.211Z,10.55
2022-11-21T07:58:14.007Z,12.38
2022-11-21T08:00:45.047Z,9.63
2022-11-21T08:03:16.369Z,10.98
2022-11-21T08:08:17.895Z,9.45
2022-11-21T08:10:49.299Z,11.02
2022-11-21T08:15:49.357Z,9.90
2022-11-21T08:18:23.793Z,8.85
2022-11-21T08:20:54.102Z,11.02
2022-11-21T08:23:24.476Z,9.02
2022-11-21T08:25:54.676Z,8.48
2022-11-21T08:28:24.804Z,7.65
2022-11-21T08:30:55.017Z,9.38
2022-11-21T08:33:25.447Z,10.10
2022-11-21T08:35:55.800Z,14.02
2022-11-21T08:38:26.192Z,12.23
2022-11-21T08:41:17.788Z,9.77
2022-11-21T08:43:57.742Z,10.45
2022-11-21T08:46:33.501Z,9.77
2022-11-21T08:49:03.878Z,11.60
2022-11-21T08:51:34.238Z,10.40
2022-11-21T08:54:06.236Z,9.15
2022-11-21T08:56:36.845Z,13.43
2022-11-21T08:59:07.152Z,20.80
2022-11-21T09:01:37.252Z,8.60
2022-11-21T09:04:08.092Z,10.13
2022-11-21T09:06:39.153Z,9.70
2022-11-21T09:09:10.056Z,33.40
2022-11-21T09:11:40.355Z,9.70
2022-11-21T09:14:29.305Z,9.27
2022-11-21T09:17:17.994Z,9.48
2022-11-21T09:19:48.291Z,11.00
2022-11-21T09:22:18.733Z,12.93
2022-11-21T09:24:49.258Z,7.50
2022-11-21T09:27:19.616Z,116.70
2022-11-21T09:29:54.115Z,9.75
2022-11-21T09:32:25.045Z,7.30
2022-11-21T09:34:55.415Z,14.03
2022-11-21T09:37:25.856Z,9.35
2022-11-21T09:39:56.139Z,14.68
2022-11-21T09:42:41.998Z,10.23
2022-11-21T09:45:22.046Z,10.88
2022-11-21T09:47:54.799Z,11.02
2022-11-21T09:50:39.108Z,12.50
2022-11-21T09:53:14.471Z,8.75
2022-11-21T09:55:49.066Z,11.13
2022-11-21T09:58:35.069Z,13.68
2022-11-21T10:01:05.677Z,13.98
2022-11-21T10:03:48.200Z,8.93
2022-11-21T10:06:29.180Z,83.10
2022-11-21T10:09:43.715Z,9.77
2022-11-21T10:12:42.499Z,13.85
2022-11-21T10:15:36.780Z,13.13
2022-11-21T10:18:44.388Z,997.97
2022-11-21T10:21:24.688Z,1016.35
2022-11-21T10:24:42.967Z,948.60
2022-11-21T10:27:22.920Z,906.08
2022-11-21T10:30:00.487Z,353.15
2022-11-21T10:32:40.062Z,8.55
2022-11-21T10:38:26.299Z,10.55
2022-11-21T10:41:25.834Z,9.63
2022-11-21T10:44:41.229Z,10.23
2022-11-21T10:47:32.406Z,14.10
2022-11-21T10:50:11.525Z,10.15
2022-11-21T10:52:53.449Z,14.18
2022-11-21T10:55:23.799Z,11.23
2022-11-21T10:57:56.559Z,16.38
2022-11-21T11:00:29.231Z,22.05
2022-11-21T11:02:59.696Z,10.05
2022-11-21T11:05:32.540Z,11.18
2022-11-21T11:08:04.555Z,8.10
2022-11-21T11:10:42.439Z,11.98
2022-11-21T11:13:52.140Z,15.35
2022-11-21T11:16:24.515Z,10.05
2022-11-21T11:19:29.843Z,15.23
2022-11-21T11:22:03.194Z,12.57
2022-11-21T11:24:33.548Z,13.02
2022-11-21T11:27:05.624Z,18.73
2022-11-21T11:29:37.875Z,13.93
2022-11-21T11:32:23.715Z,85.78
2022-11-21T11:35:02.436Z,13.23
2022-11-21T11:37:40.126Z,20.95
2022-11-21T11:40:26.060Z,11.32
2022-11-21T11:43:26.382Z,11.82
2022-11-21T11:46:51.729Z,13.85
2022-11-21T11:49:58.134Z,15.45
2022-11-21T11:52:37.100Z,13.10
2022-11-21T11:55:11.975Z,32.47
2022-11-21T11:57:44.089Z,19.20
2022-11-21T12:00:25.756Z,104.38
2022-11-21T12:03:23.946Z,15.82
2022-11-21T12:06:13.587Z,20.70
2022-11-21T12:08:58.746Z,17.17
2022-11-21T12:11:51.739Z,13.52
2022-11-21T12:15:17.570Z,12.07
2022-11-21T12:17:50.403Z,17.77
2022-11-21T12:20:33.202Z,31.58
2022-11-21T12:23:03.705Z,81.05
2022-11-21T12:25:39.450Z,538.87
2022-11-21T12:28:22.295Z,60.90
2022-11-21T12:31:07.499Z,54.38
2022-11-21T12:33:48.352Z,56.80
2022-11-21T12:36:23.152Z,186.15
2022-11-21T12:39:05.611Z,872.38
2022-11-21T12:42:09.506Z,177.20
2022-11-21T12:44:57.456Z,701.67
2022-11-21T12:48:03.621Z,1050.97
2022-11-21T12:51:08.635Z,1037.95
2022-11-21T12:54:40.897Z,983.25
2022-11-21T12:57:14.278Z,717.17
2022-11-21T12:59:53.513Z,594.20
2022-11-21T13:02:44.576Z,560.08
2022-11-21T13:05:22.298Z,1014.63
2022-11-21T13:07:58.114Z,918.33
2022-11-21T13:10:29.933Z,1037.53
2022-11-21T13:13:25.146Z,393.48
2022-11-21T13:16:18.169Z,464.50
2022-11-21T13:18:52.243Z,59.88
2022-11-21T13:21:44.173Z,140.38
2022-11-21T13:24:34.306Z,178.35
2022-11-21T13:27:04.615Z,172.00
2022-11-21T13:29:35.084Z,70.75
2022-11-21T13:32:44.084Z,54.27
2022-11-21T13:35:23.423Z,384.88
2022-11-21T13:40:33.882Z,1004.53
2022-11-21T13:43:35.205Z,229.18
2022-11-21T13:48:57.555Z,377.02
2022-11-21T13:51:41.295Z,944.28
2022-11-21T13:54:26.872Z,823.25
2022-11-21T13:57:06.275Z,998.40
2022-11-21T13:59:51.962Z,909.67
2022-11-21T14:02:48.035Z,877.78
2022-11-21T14:05:24.542Z,863.20
2022-11-21T14:07:55.100Z,887.40
2022-11-21T14:10:37.397Z,822.90
2022-11-21T14:13:07.857Z,807.15
2022-11-21T14:15:50.572Z,712.33
2022-11-21T14:18:27.271Z,479.45
2022-11-21T14:21:03.017Z,242.63
2022-11-21T14:23:37.110Z,434.30
2022-11-21T14:26:15.117Z,540.58
2022-11-21T14:28:45.731Z,697.55
2022-11-21T14:31:19.603Z,809.90
2022-11-21T14:33:51.561Z,907.85
2022-11-21T14:36:34.140Z,881.65
2022-11-21T14:39:35.899Z,853.75
2022-11-21T14:42:07.722Z,856.30
2022-11-21T14:44:38.048Z,864.47
2022-11-21T14:47:26.317Z,833.20
2022-11-21T14:50:03.886Z,883.60
2022-11-21T14:52:38.037Z,893.55
2022-11-21T14:58:03.849Z,892.58
2022-11-21T15:00:58.757Z,914.88
2022-11-21T15:03:26.220Z,951.38
2022-11-21T15:06:07.444Z,969.97
2022-11-21T15:11:43.798Z,975.47
2022-11-21T15:14:44.844Z,946.65
2022-11-21T15:17:21.270Z,941.28
2022-11-21T15:20:14.756Z,898.60
2022-11-21T15:22:45.348Z,918.13
2022-11-21T15:25:22.947Z,916.33
2022-11-21T15:27:55.709Z,926.97
2022-11-21T15:30:32.274Z,911.50
2022-11-21T15:33:10.204Z,918.00
2022-11-21T15:35:59.710Z,887.20
2022-11-21T15:38:36.514Z,920.35
2022-11-21T15:41:12.791Z,935.40
2022-11-21T15:43:44.519Z,913.05
2022-11-21T15:46:26.975Z,914.92
2022-11-21T15:49:25.106Z,951.40
2022-11-21T15:52:09.913Z,938.83
2022-11-21T15:54:40.905Z,933.50
2022-11-21T15:57:17.305Z,938.63
2022-11-21T15:59:49.687Z,978.97
2022-11-21T16:02:20.456Z,942.47
2022-11-21T16:04:50.820Z,996.15
2022-11-21T16:07:21.309Z,929.22
2022-11-21T16:09:52.382Z,926.07
2022-11-21T16:12:22.877Z,982.70
2022-11-21T16:14:53.415Z,211.03
2022-11-21T16:17:23.839Z,667.10
2022-11-21T16:19:54.246Z,955.87
2022-11-21T16:22:24.662Z,917.67
2022-11-21T16:24:55.376Z,895.13
2022-11-21T16:27:28.521Z,923.87
2022-11-21T16:29:58.811Z,918.17
2022-11-21T16:32:29.368Z,967.95
2022-11-21T16:35:00.755Z,938.17
2022-11-21T16:37:33.688Z,925.40
2022-11-21T16:40:04.173Z,908.58
2022-11-21T16:42:34.620Z,904.97
2022-11-21T16:45:05.046Z,910.00
2022-11-21T16:47:37.962Z,902.93
2022-11-21T16:50:08.891Z,915.42
2022-11-21T16:52:39.483Z,902.00
2022-11-21T16:55:10.166Z,943.00
2022-11-21T16:57:40.740Z,986.78
2022-11-21T17:00:14.297Z,887.83
2022-11-21T17:02:45.066Z,986.22
2022-11-21T17:05:15.651Z,1024.97
2022-11-21T17:07:47.316Z,678.58
2022-11-21T17:10:18.663Z,732.88
2022-11-21T17:12:49.165Z,997.92
2022-11-21T17:15:19.676Z,961.30
2022-11-21T17:17:50.293Z,983.50
2022-11-21T17:20:20.512Z,965.92
2022-11-21T17:22:50.961Z,951.60
2022-11-21T17:25:21.471Z,973.35
2022-11-21T17:27:51.935Z,919.47
2022-11-21T17:30:23.722Z,971.67
2022-11-21T17:32:54.417Z,969.55
2022-11-21T17:35:24.694Z,944.10
2022-11-21T17:37:55.084Z,985.63
2022-11-21T17:40:25.504Z,954.40
2022-11-21T17:42:55.883Z,920.70
2022-11-21T17:45:27.577Z,951.65
2022-11-21T17:47:58.050Z,809.90
2022-11-21T17:50:28.389Z,950.17
2022-11-21T17:53:00.039Z,808.53
2022-11-21T17:55:30.502Z,941.97
2022-11-21T17:58:00.792Z,245.57
2022-11-21T18:00:31.417Z,719.67
2022-11-21T18:03:01.871Z,443.23
2022-11-21T18:05:32.142Z,697.15
2022-11-21T18:08:02.484Z,897.47
2022-11-21T18:10:47.687Z,507.90
2022-11-21T18:13:18.059Z,920.13
2022-11-21T18:15:48.492Z,917.40
2022-11-21T18:18:18.760Z,150.75
2022-11-21T18:20:49.557Z,753.38
2022-11-21T18:23:20.133Z,929.28
2022-11-21T18:25:50.415Z,181.77
2022-11-21T18:28:20.795Z,276.77
2022-11-21T18:30:51.032Z,193.45
2022-11-21T18:33:21.280Z,707.60
2022-11-21T18:35:51.575Z,118.53
2022-11-21T18:38:46.885Z,87.60
2022-11-21T18:41:18.368Z,901.00
2022-11-21T18:43:55.409Z,633.28
2022-11-21T18:46:29.030Z,748.45
2022-11-21T18:49:04.802Z,767.38
2022-11-21T18:51:36.894Z,840.83
2022-11-21T18:54:09.985Z,850.22
2022-11-21T18:56:41.986Z,918.15
2022-11-21T18:59:12.533Z,945.35
2022-11-21T19:01:42.982Z,905.53
2022-11-21T19:04:13.207Z,899.80
2022-11-21T19:06:43.620Z,913.72
2022-11-21T19:09:13.970Z,882.20
2022-11-21T19:11:44.411Z,788.53
2022-11-21T19:14:14.850Z,889.67
2022-11-21T19:16:45.062Z,893.95
2022-11-21T19:19:34.538Z,920.38
2022-11-21T19:22:07.747Z,916.60
2022-11-21T19:24:38.044Z,917.53
2022-11-21T19:27:09.211Z,926.97
2022-11-21T19:29:39.587Z,923.33
2022-11-21T19:32:09.612Z,941.60
2022-11-21T19:34:40.223Z,920.45
2022-11-21T19:37:10.560Z,889.13
2022-11-21T19:39:40.887Z,890.90
2022-11-21T19:42:11.184Z,539.97
2022-11-21T19:44:41.479Z,334.48
2022-11-21T19:47:12.942Z,677.38
2022-11-21T19:49:43.222Z,784.17
2022-11-21T19:52:13.468Z,889.70
2022-11-21T19:54:44.595Z,842.28
2022-11-21T19:57:15.262Z,892.38
2022-11-21T19:59:47.019Z,892.67
2022-11-21T20:02:23.487Z,865.90
2022-11-21T20:04:53.875Z,926.45
2022-11-21T20:07:24.629Z,885.40
2022-11-21T20:09:55.043Z,352.10
2022-11-21T20:12:25.350Z,915.63
2022-11-21T20:14:55.888Z,901.10
2022-11-21T20:17:26.288Z,711.85
2022-11-21T20:19:56.579Z,947.22
2022-11-21T20:22:26.947Z,904.83
2022-11-21T20:24:57.304Z,925.85
2022-11-21T20:27:27.963Z,868.72
2022-11-21T20:29:58.262Z,901.60
2022-11-21T20:32:30.539Z,887.30
2022-11-21T20:35:00.932Z,931.17
2022-11-21T20:37:31.910Z,955.10
2022-11-21T20:40:02.108Z,961.22
2022-11-21T20:42:32.414Z,722.20
2022-11-21T20:47:52.875Z,901.83
2022-11-21T20:51:03.449Z,878.42
2022-11-21T20:56:12.437Z,918.70
2022-11-21T20:58:44.953Z,916.95
2022-11-21T21:01:17.659Z,897.20
2022-11-21T21:03:48.257Z,819.10
2022-11-21T21:06:19.264Z,375.05
2022-11-21T21:08:53.815Z,431.75
2022-11-21T21:11:50.375Z,882.90
2022-11-21T21:14:16.776Z,647.80
2022-11-21T21:16:47.262Z,704.10
2022-11-21T21:19:17.958Z,886.87
2022-11-21T21:21:48.352Z,896.40
2022-11-21T21:24:19.546Z,550.80
2022-11-21T21:26:51.391Z,850.38
2022-11-21T21:29:23.743Z,865.22
2022-11-21T21:31:54.110Z,838.53
2022-11-21T21:34:25.544Z,887.15
2022-11-21T21:39:25.450Z,922.53
2022-11-21T21:41:56.052Z,840.28
2022-11-21T21:44:32.780Z,950.47
2022-11-21T21:47:04.333Z,927.70
2022-11-21T21:49:34.671Z,879.78
2022-11-21T21:52:05.417Z,870.05
2022-11-21T21:54:36.192Z,872.43
2022-11-21T21:57:06.625Z,892.15
2022-11-21T21:59:36.755Z,900.20
2022-11-21T22:02:07.166Z,841.33
2022-11-21T22:04:37.497Z,897.17
2022-11-21T22:07:07.909Z,907.80
2022-11-21T22:09:38.441Z,871.80
2022-11-21T22:12:08.771Z,871.40
2022-11-21T22:14:38.953Z,878.20
2022-11-21T22:17:09.077Z,805.95
2022-11-21T22:19:39.242Z,839.88
2022-11-21T22:22:09.294Z,769.55
2022-11-21T22:24:41.434Z,879.28
2022-11-21T22:27:11.821Z,879.95
2022-11-21T22:29:41.899Z,857.75
2022-11-21T22:34:47.348Z,35.25
2022-11-21T22:37:17.604Z,41.80
2022-11-21T22:39:48.079Z,35.37
2022-11-21T22:42:18.420Z,38.05
2022-11-21T22:44:49.114Z,36.92
2022-11-21T22:47:19.696Z,33.87
2022-11-21T22:49:50.054Z,35.87
2022-11-21T22:52:20.532Z,36.90
2022-11-21T22:54:50.803Z,40.43
2022-11-21T22:57:21.430Z,42.25
2022-11-21T22:59:52.015Z,48.55
2022-11-21T23:02:34.261Z,46.43
2022-11-21T23:05:06.345Z,42.80
2022-11-21T23:07:37.980Z,45.45
2022-11-21T23:10:09.010Z,38.47
2022-11-21T23:12:39.610Z,44.22
2022-11-21T23:15:10.489Z,43.03
2022-11-21T23:17:40.744Z,44.77
2022-11-21T23:20:11.781Z,48.30
2022-11-21T23:22:42.005Z,45.85
2022-11-21T23:25:12.507Z,46.15
2022-11-21T23:27:42.571Z,44.83
2022-11-21T23:30:13.701Z,49.22
2022-11-21T23:35:14.079Z,48.70
2022-11-21T23:37:44.221Z,44.38
2022-11-21T23:40:15.018Z,42.78
2022-11-21T23:42:46.497Z,45.75
2022-11-21T23:45:17.075Z,42.35
2022-11-21T23:47:47.409Z,46.97
2022-11-21T23:50:18.963Z,48.45
2022-11-21T23:52:50.361Z,43.60
2022-11-21T23:57:52.545Z,48.97
